sensor_id;sensor_type;location;lat;lon;timestamp;P1;durP1;ratioP1;P2;durP2;ratioP2
23394;SDS011;11870;53.084;18.206;2023-04-06T00:02:18;78.57;;;27.50;;
23394;SDS011;11870;53.084;18.206;2023-04-06T00:04:44;83.03;;;28.15;;
23394;SDS011;11870;53.084;18.206;2023-04-06T00:07:10;87.53;;;27.63;;
23394;SDS011;11870;53.084;18.206;2023-04-06T00:09:37;85.07;;;29.60;;
23394;SDS011;11870;53.084;18.206;2023-04-06T00:12:03;76.68;;;24.98;;
23394;SDS011;11870;53.084;18.206;2023-04-06T00:14:30;65.35;;;22.05;;
23394;SDS011;11870;53.084;18.206;2023-04-06T00:16:56;53.42;;;18.75;;
23394;SDS011;11870;53.084;18.206;2023-04-06T00:19:23;48.80;;;17.73;;
23394;SDS011;11870;53.084;18.206;2023-04-06T00:21:49;57.63;;;19.20;;
23394;SDS011;11870;53.084;18.206;2023-04-06T00:24:15;43.67;;;17.85;;
23394;SDS011;11870;53.084;18.206;2023-04-06T00:26:42;46.95;;;15.75;;
23394;SDS011;11870;53.084;18.206;2023-04-06T00:29:08;44.05;;;16.45;;
23394;SDS011;11870;53.084;18.206;2023-04-06T00:31:34;45.40;;;15.77;;
23394;SDS011;11870;53.084;18.206;2023-04-06T00:34:01;47.80;;;17.25;;
23394;SDS011;11870;53.084;18.206;2023-04-06T00:36:27;49.72;;;16.00;;
23394;SDS011;11870;53.084;18.206;2023-04-06T00:38:54;47.63;;;16.10;;
23394;SDS011;11870;53.084;18.206;2023-04-06T00:41:20;53.25;;;18.20;;
23394;SDS011;11870;53.084;18.206;2023-04-06T00:43:47;52.70;;;17.60;;
23394;SDS011;11870;53.084;18.206;2023-04-06T00:46:13;53.45;;;18.30;;
23394;SDS011;11870;53.084;18.206;2023-04-06T00:48:40;51.22;;;18.52;;
23394;SDS011;11870;53.084;18.206;2023-04-06T00:51:06;49.42;;;17.23;;
23394;SDS011;11870;53.084;18.206;2023-04-06T00:53:32;61.95;;;22.58;;
23394;SDS011;11870;53.084;18.206;2023-04-06T00:55:59;77.65;;;23.60;;
23394;SDS011;11870;53.084;18.206;2023-04-06T00:58:25;75.25;;;21.98;;
23394;SDS011;11870;53.084;18.206;2023-04-06T01:00:52;69.30;;;22.10;;
23394;SDS011;11870;53.084;18.206;2023-04-06T01:03:18;89.50;;;27.13;;
23394;SDS011;11870;53.084;18.206;2023-04-06T01:05:45;96.68;;;27.30;;
23394;SDS011;11870;53.084;18.206;2023-04-06T01:08:11;83.03;;;26.80;;
23394;SDS011;11870;53.084;18.206;2023-04-06T01:10:38;86.93;;;26.63;;
23394;SDS011;11870;53.084;18.206;2023-04-06T01:13:04;87.55;;;27.10;;
23394;SDS011;11870;53.084;18.206;2023-04-06T01:15:30;96.97;;;29.45;;
23394;SDS011;11870;53.084;18.206;2023-04-06T01:17:58;94.43;;;27.98;;
23394;SDS011;11870;53.084;18.206;2023-04-06T01:20:25;93.07;;;28.35;;
23394;SDS011;11870;53.084;18.206;2023-04-06T01:22:51;84.93;;;25.98;;
23394;SDS011;11870;53.084;18.206;2023-04-06T01:25:18;88.05;;;25.73;;
23394;SDS011;11870;53.084;18.206;2023-04-06T01:27:44;89.88;;;28.05;;
23394;SDS011;11870;53.084;18.206;2023-04-06T01:30:10;86.22;;;26.35;;
23394;SDS011;11870;53.084;18.206;2023-04-06T01:32:37;79.78;;;25.38;;
23394;SDS011;11870;53.084;18.206;2023-04-06T01:35:03;89.85;;;25.88;;
23394;SDS011;11870;53.084;18.206;2023-04-06T01:37:30;146.80;;;34.20;;
23394;SDS011;11870;53.084;18.206;2023-04-06T01:39:57;110.75;;;29.10;;
23394;SDS011;11870;53.084;18.206;2023-04-06T01:42:24;163.55;;;38.63;;
23394;SDS011;11870;53.084;18.206;2023-04-06T01:44:51;211.15;;;45.53;;
23394;SDS011;11870;53.084;18.206;2023-04-06T01:47:18;187.23;;;41.00;;
23394;SDS011;11870;53.084;18.206;2023-04-06T01:49:44;195.05;;;41.38;;
23394;SDS011;11870;53.084;18.206;2023-04-06T01:52:10;223.43;;;45.38;;
23394;SDS011;11870;53.084;18.206;2023-04-06T01:54:37;227.13;;;47.20;;
23394;SDS011;11870;53.084;18.206;2023-04-06T01:57:03;220.85;;;47.45;;
23394;SDS011;11870;53.084;18.206;2023-04-06T01:59:30;196.07;;;44.30;;
23394;SDS011;11870;53.084;18.206;2023-04-06T02:01:56;157.88;;;37.70;;
23394;SDS011;11870;53.084;18.206;2023-04-06T02:04:23;142.65;;;33.72;;
23394;SDS011;11870;53.084;18.206;2023-04-06T02:06:49;213.82;;;41.90;;
23394;SDS011;11870;53.084;18.206;2023-04-06T02:09:16;235.80;;;48.15;;
23394;SDS011;11870;53.084;18.206;2023-04-06T02:11:42;238.25;;;47.63;;
23394;SDS011;11870;53.084;18.206;2023-04-06T02:14:08;221.20;;;43.90;;
23394;SDS011;11870;53.084;18.206;2023-04-06T02:16:35;235.18;;;45.50;;
23394;SDS011;11870;53.084;18.206;2023-04-06T02:19:01;193.02;;;39.80;;
23394;SDS011;11870;53.084;18.206;2023-04-06T02:21:28;202.75;;;39.65;;
23394;SDS011;11870;53.084;18.206;2023-04-06T02:23:54;167.75;;;33.53;;
23394;SDS011;11870;53.084;18.206;2023-04-06T02:26:21;153.15;;;32.97;;
23394;SDS011;11870;53.084;18.206;2023-04-06T02:28:47;163.40;;;35.20;;
23394;SDS011;11870;53.084;18.206;2023-04-06T02:31:14;161.48;;;33.67;;
23394;SDS011;11870;53.084;18.206;2023-04-06T02:33:41;148.13;;;30.40;;
23394;SDS011;11870;53.084;18.206;2023-04-06T02:36:07;155.68;;;35.90;;
23394;SDS011;11870;53.084;18.206;2023-04-06T02:38:33;169.70;;;32.80;;
23394;SDS011;11870;53.084;18.206;2023-04-06T02:41:00;141.65;;;30.80;;
23394;SDS011;11870;53.084;18.206;2023-04-06T02:43:26;170.95;;;33.50;;
23394;SDS011;11870;53.084;18.206;2023-04-06T02:45:53;121.05;;;28.75;;
23394;SDS011;11870;53.084;18.206;2023-04-06T02:48:20;146.73;;;33.30;;
23394;SDS011;11870;53.084;18.206;2023-04-06T02:50:46;201.55;;;40.97;;
23394;SDS011;11870;53.084;18.206;2023-04-06T02:53:12;186.93;;;38.72;;
23394;SDS011;11870;53.084;18.206;2023-04-06T02:55:39;186.77;;;38.80;;
23394;SDS011;11870;53.084;18.206;2023-04-06T02:58:05;181.32;;;38.65;;
23394;SDS011;11870;53.084;18.206;2023-04-06T03:00:32;167.93;;;35.78;;
23394;SDS011;11870;53.084;18.206;2023-04-06T03:02:58;174.52;;;36.28;;
23394;SDS011;11870;53.084;18.206;2023-04-06T03:05:25;159.55;;;32.85;;
23394;SDS011;11870;53.084;18.206;2023-04-06T03:07:51;156.68;;;31.48;;
23394;SDS011;11870;53.084;18.206;2023-04-06T03:10:17;112.90;;;26.70;;
23394;SDS011;11870;53.084;18.206;2023-04-06T03:12:44;133.85;;;31.55;;
23394;SDS011;11870;53.084;18.206;2023-04-06T03:15:10;85.57;;;22.80;;
23394;SDS011;11870;53.084;18.206;2023-04-06T03:17:37;89.60;;;21.70;;
23394;SDS011;11870;53.084;18.206;2023-04-06T03:20:03;88.63;;;21.25;;
23394;SDS011;11870;53.084;18.206;2023-04-06T03:22:30;73.97;;;19.73;;
23394;SDS011;11870;53.084;18.206;2023-04-06T03:24:56;74.55;;;16.70;;
23394;SDS011;11870;53.084;18.206;2023-04-06T03:27:23;55.88;;;17.23;;
23394;SDS011;11870;53.084;18.206;2023-04-06T03:29:49;55.35;;;16.27;;
23394;SDS011;11870;53.084;18.206;2023-04-06T03:32:16;60.60;;;15.68;;
23394;SDS011;11870;53.084;18.206;2023-04-06T03:34:42;58.90;;;13.02;;
23394;SDS011;11870;53.084;18.206;2023-04-06T03:37:08;35.38;;;11.80;;
23394;SDS011;11870;53.084;18.206;2023-04-06T03:39:35;36.75;;;11.02;;
23394;SDS011;11870;53.084;18.206;2023-04-06T03:42:01;47.53;;;13.85;;
23394;SDS011;11870;53.084;18.206;2023-04-06T03:44:28;37.10;;;12.13;;
23394;SDS011;11870;53.084;18.206;2023-04-06T03:46:54;38.78;;;10.95;;
23394;SDS011;11870;53.084;18.206;2023-04-06T03:49:21;44.47;;;13.18;;
23394;SDS011;11870;53.084;18.206;2023-04-06T03:51:47;42.53;;;12.68;;
23394;SDS011;11870;53.084;18.206;2023-04-06T03:54:13;57.13;;;15.32;;
23394;SDS011;11870;53.084;18.206;2023-04-06T03:56:40;77.28;;;24.88;;
23394;SDS011;11870;53.084;18.206;2023-04-06T03:59:06;99.90;;;31.70;;
23394;SDS011;11870;53.084;18.206;2023-04-06T04:01:32;145.35;;;45.55;;
23394;SDS011;11870;53.084;18.206;2023-04-06T04:03:59;58.90;;;21.40;;
23394;SDS011;11870;53.084;18.206;2023-04-06T04:06:28;36.15;;;12.90;;
23394;SDS011;11870;53.084;18.206;2023-04-06T04:08:55;30.52;;;12.15;;
23394;SDS011;11870;53.084;18.206;2023-04-06T04:11:21;40.38;;;13.35;;
23394;SDS011;11870;53.084;18.206;2023-04-06T04:13:48;44.33;;;14.15;;
23394;SDS011;11870;53.084;18.206;2023-04-06T04:16:14;41.45;;;14.73;;
23394;SDS011;11870;53.084;18.206;2023-04-06T04:18:41;46.35;;;16.20;;
23394;SDS011;11870;53.084;18.206;2023-04-06T04:21:08;39.42;;;14.63;;
23394;SDS011;11870;53.084;18.206;2023-04-06T04:23:35;40.60;;;13.30;;
23394;SDS011;11870;53.084;18.206;2023-04-06T04:26:01;35.65;;;13.00;;
23394;SDS011;11870;53.084;18.206;2023-04-06T04:28:28;38.80;;;13.85;;
23394;SDS011;11870;53.084;18.206;2023-04-06T04:30:54;41.40;;;13.80;;
23394;SDS011;11870;53.084;18.206;2023-04-06T04:33:21;34.22;;;11.98;;
23394;SDS011;11870;53.084;18.206;2023-04-06T04:35:47;30.92;;;12.20;;
23394;SDS011;11870;53.084;18.206;2023-04-06T04:38:13;34.38;;;12.63;;
23394;SDS011;11870;53.084;18.206;2023-04-06T04:40:40;33.08;;;12.38;;
23394;SDS011;11870;53.084;18.206;2023-04-06T04:43:06;29.88;;;12.02;;
23394;SDS011;11870;53.084;18.206;2023-04-06T04:45:32;32.35;;;12.23;;
23394;SDS011;11870;53.084;18.206;2023-04-06T04:47:59;34.30;;;11.82;;
23394;SDS011;11870;53.084;18.206;2023-04-06T04:50:25;30.55;;;11.15;;
23394;SDS011;11870;53.084;18.206;2023-04-06T04:52:52;27.75;;;11.25;;
23394;SDS011;11870;53.084;18.206;2023-04-06T04:55:18;26.88;;;10.10;;
23394;SDS011;11870;53.084;18.206;2023-04-06T04:57:45;24.23;;;10.38;;
23394;SDS011;11870;53.084;18.206;2023-04-06T05:00:11;24.00;;;10.30;;
23394;SDS011;11870;53.084;18.206;2023-04-06T05:02:38;32.30;;;11.32;;
23394;SDS011;11870;53.084;18.206;2023-04-06T05:05:04;37.85;;;12.32;;
23394;SDS011;11870;53.084;18.206;2023-04-06T05:07:31;38.97;;;13.68;;
23394;SDS011;11870;53.084;18.206;2023-04-06T05:09:57;33.42;;;13.30;;
23394;SDS011;11870;53.084;18.206;2023-04-06T05:12:24;31.10;;;12.85;;
23394;SDS011;11870;53.084;18.206;2023-04-06T05:14:52;33.95;;;11.68;;
23394;SDS011;11870;53.084;18.206;2023-04-06T05:17:19;27.05;;;11.68;;
23394;SDS011;11870;53.084;18.206;2023-04-06T05:19:45;25.58;;;10.20;;
23394;SDS011;11870;53.084;18.206;2023-04-06T05:22:12;30.52;;;11.90;;
23394;SDS011;11870;53.084;18.206;2023-04-06T05:24:41;31.23;;;11.55;;
23394;SDS011;11870;53.084;18.206;2023-04-06T05:27:07;31.40;;;11.90;;
23394;SDS011;11870;53.084;18.206;2023-04-06T05:29:34;36.13;;;14.07;;
23394;SDS011;11870;53.084;18.206;2023-04-06T05:32:00;45.45;;;14.98;;
23394;SDS011;11870;53.084;18.206;2023-04-06T05:34:27;43.47;;;15.05;;
23394;SDS011;11870;53.084;18.206;2023-04-06T05:36:53;31.48;;;12.50;;
23394;SDS011;11870;53.084;18.206;2023-04-06T05:39:20;32.20;;;12.35;;
23394;SDS011;11870;53.084;18.206;2023-04-06T05:41:47;30.25;;;11.30;;
23394;SDS011;11870;53.084;18.206;2023-04-06T05:44:13;26.50;;;12.18;;
23394;SDS011;11870;53.084;18.206;2023-04-06T05:46:40;24.70;;;12.00;;
23394;SDS011;11870;53.084;18.206;2023-04-06T05:49:06;33.97;;;13.07;;
23394;SDS011;11870;53.084;18.206;2023-04-06T05:51:33;26.95;;;13.18;;
23394;SDS011;11870;53.084;18.206;2023-04-06T05:53:59;27.73;;;11.80;;
23394;SDS011;11870;53.084;18.206;2023-04-06T05:56:25;32.50;;;12.43;;
23394;SDS011;11870;53.084;18.206;2023-04-06T05:58:52;32.13;;;13.93;;
23394;SDS011;11870;53.084;18.206;2023-04-06T06:01:18;36.63;;;13.93;;
23394;SDS011;11870;53.084;18.206;2023-04-06T06:03:44;32.97;;;14.82;;
23394;SDS011;11870;53.084;18.206;2023-04-06T06:06:11;34.25;;;15.52;;
23394;SDS011;11870;53.084;18.206;2023-04-06T06:08:37;36.80;;;16.73;;
23394;SDS011;11870;53.084;18.206;2023-04-06T06:11:03;34.85;;;16.25;;
23394;SDS011;11870;53.084;18.206;2023-04-06T06:13:30;34.28;;;14.38;;
23394;SDS011;11870;53.084;18.206;2023-04-06T06:15:57;36.78;;;13.85;;
23394;SDS011;11870;53.084;18.206;2023-04-06T06:18:23;29.20;;;13.15;;
23394;SDS011;11870;53.084;18.206;2023-04-06T06:20:49;28.70;;;13.43;;
23394;SDS011;11870;53.084;18.206;2023-04-06T06:23:16;29.38;;;13.20;;
23394;SDS011;11870;53.084;18.206;2023-04-06T06:25:42;32.53;;;15.38;;
23394;SDS011;11870;53.084;18.206;2023-04-06T06:28:08;38.75;;;17.17;;
23394;SDS011;11870;53.084;18.206;2023-04-06T06:30:35;39.28;;;15.93;;
23394;SDS011;11870;53.084;18.206;2023-04-06T06:33:01;37.75;;;16.02;;
23394;SDS011;11870;53.084;18.206;2023-04-06T06:35:28;34.75;;;15.45;;
23394;SDS011;11870;53.084;18.206;2023-04-06T06:37:54;35.85;;;15.88;;
23394;SDS011;11870;53.084;18.206;2023-04-06T06:40:21;44.78;;;16.75;;
23394;SDS011;11870;53.084;18.206;2023-04-06T06:42:49;38.88;;;16.25;;
23394;SDS011;11870;53.084;18.206;2023-04-06T06:45:16;38.38;;;16.15;;
23394;SDS011;11870;53.084;18.206;2023-04-06T06:47:43;38.47;;;16.92;;
23394;SDS011;11870;53.084;18.206;2023-04-06T06:50:09;41.08;;;17.25;;
23394;SDS011;11870;53.084;18.206;2023-04-06T06:52:35;38.28;;;16.25;;
23394;SDS011;11870;53.084;18.206;2023-04-06T06:55:02;39.20;;;16.75;;
23394;SDS011;11870;53.084;18.206;2023-04-06T06:57:28;40.92;;;14.75;;
23394;SDS011;11870;53.084;18.206;2023-04-06T06:59:54;30.73;;;14.48;;
23394;SDS011;11870;53.084;18.206;2023-04-06T07:02:21;30.33;;;13.40;;
23394;SDS011;11870;53.084;18.206;2023-04-06T07:04:47;26.98;;;12.95;;
23394;SDS011;11870;53.084;18.206;2023-04-06T07:07:14;28.67;;;12.98;;
23394;SDS011;11870;53.084;18.206;2023-04-06T07:09:41;27.58;;;12.50;;
23394;SDS011;11870;53.084;18.206;2023-04-06T07:12:07;25.13;;;10.50;;
23394;SDS011;11870;53.084;18.206;2023-04-06T07:14:33;27.52;;;11.85;;
23394;SDS011;11870;53.084;18.206;2023-04-06T07:17:00;24.20;;;11.30;;
23394;SDS011;11870;53.084;18.206;2023-04-06T07:19:26;20.35;;;11.18;;
23394;SDS011;11870;53.084;18.206;2023-04-06T07:21:52;22.48;;;11.02;;
23394;SDS011;11870;53.084;18.206;2023-04-06T07:24:19;23.65;;;10.88;;
23394;SDS011;11870;53.084;18.206;2023-04-06T07:26:45;20.80;;;9.68;;
23394;SDS011;11870;53.084;18.206;2023-04-06T07:29:12;20.05;;;10.63;;
23394;SDS011;11870;53.084;18.206;2023-04-06T07:31:38;21.75;;;10.70;;
23394;SDS011;11870;53.084;18.206;2023-04-06T07:34:05;17.65;;;8.00;;
23394;SDS011;11870;53.084;18.206;2023-04-06T07:36:31;15.40;;;7.55;;
23394;SDS011;11870;53.084;18.206;2023-04-06T07:38:57;20.38;;;8.20;;
23394;SDS011;11870;53.084;18.206;2023-04-06T07:41:24;13.85;;;6.72;;
23394;SDS011;11870;53.084;18.206;2023-04-06T07:43:51;12.38;;;6.28;;
23394;SDS011;11870;53.084;18.206;2023-04-06T07:46:17;12.90;;;6.53;;
23394;SDS011;11870;53.084;18.206;2023-04-06T07:48:43;10.73;;;5.93;;
23394;SDS011;11870;53.084;18.206;2023-04-06T07:51:10;15.02;;;6.70;;
23394;SDS011;11870;53.084;18.206;2023-04-06T07:53:39;10.35;;;5.97;;
23394;SDS011;11870;53.084;18.206;2023-04-06T07:56:05;10.57;;;5.53;;
23394;SDS011;11870;53.084;18.206;2023-04-06T07:58:32;10.65;;;5.82;;
23394;SDS011;11870;53.084;18.206;2023-04-06T08:00:58;8.43;;;4.75;;
23394;SDS011;11870;53.084;18.206;2023-04-06T08:03:24;9.60;;;5.10;;
23394;SDS011;11870;53.084;18.206;2023-04-06T08:05:51;9.25;;;5.90;;
23394;SDS011;11870;53.084;18.206;2023-04-06T08:08:18;12.38;;;5.25;;
23394;SDS011;11870;53.084;18.206;2023-04-06T08:10:45;10.07;;;5.20;;
23394;SDS011;11870;53.084;18.206;2023-04-06T08:13:11;9.98;;;4.80;;
23394;SDS011;11870;53.084;18.206;2023-04-06T08:15:37;13.70;;;6.00;;
23394;SDS011;11870;53.084;18.206;2023-04-06T08:18:04;12.15;;;5.82;;
23394;SDS011;11870;53.084;18.206;2023-04-06T08:20:31;9.50;;;4.22;;
23394;SDS011;11870;53.084;18.206;2023-04-06T08:22:57;5.22;;;2.60;;
23394;SDS011;11870;53.084;18.206;2023-04-06T08:25:23;6.38;;;3.65;;
23394;SDS011;11870;53.084;18.206;2023-04-06T08:27:50;8.05;;;4.18;;
23394;SDS011;11870;53.084;18.206;2023-04-06T08:30:16;4.95;;;3.22;;
23394;SDS011;11870;53.084;18.206;2023-04-06T08:32:47;8.45;;;3.65;;
23394;SDS011;11870;53.084;18.206;2023-04-06T08:35:13;7.03;;;4.10;;
23394;SDS011;11870;53.084;18.206;2023-04-06T08:37:39;9.45;;;4.57;;
23394;SDS011;11870;53.084;18.206;2023-04-06T08:40:06;19.67;;;6.20;;
23394;SDS011;11870;53.084;18.206;2023-04-06T08:42:32;4.80;;;3.22;;
23394;SDS011;11870;53.084;18.206;2023-04-06T08:44:59;7.68;;;4.00;;
23394;SDS011;11870;53.084;18.206;2023-04-06T08:47:26;5.88;;;3.47;;
23394;SDS011;11870;53.084;18.206;2023-04-06T08:49:53;6.20;;;3.80;;
23394;SDS011;11870;53.084;18.206;2023-04-06T08:52:19;9.65;;;4.95;;
23394;SDS011;11870;53.084;18.206;2023-04-06T08:54:46;8.25;;;4.22;;
23394;SDS011;11870;53.084;18.206;2023-04-06T08:57:12;12.27;;;5.70;;
23394;SDS011;11870;53.084;18.206;2023-04-06T08:59:39;10.45;;;5.30;;
23394;SDS011;11870;53.084;18.206;2023-04-06T09:02:06;9.20;;;5.30;;
23394;SDS011;11870;53.084;18.206;2023-04-06T09:04:37;7.82;;;4.60;;
23394;SDS011;11870;53.084;18.206;2023-04-06T09:07:03;7.78;;;4.68;;
23394;SDS011;11870;53.084;18.206;2023-04-06T09:09:29;9.65;;;4.95;;
23394;SDS011;11870;53.084;18.206;2023-04-06T09:11:56;10.48;;;4.53;;
23394;SDS011;11870;53.084;18.206;2023-04-06T09:14:34;7.78;;;4.45;;
23394;SDS011;11870;53.084;18.206;2023-04-06T09:17:04;9.07;;;4.90;;
23394;SDS011;11870;53.084;18.206;2023-04-06T09:19:31;7.03;;;4.55;;
23394;SDS011;11870;53.084;18.206;2023-04-06T09:22:01;8.13;;;4.18;;
23394;SDS011;11870;53.084;18.206;2023-04-06T09:24:28;7.97;;;4.35;;
23394;SDS011;11870;53.084;18.206;2023-04-06T09:26:54;9.63;;;4.10;;
23394;SDS011;11870;53.084;18.206;2023-04-06T09:29:22;9.82;;;4.60;;
23394;SDS011;11870;53.084;18.206;2023-04-06T09:31:49;6.47;;;4.15;;
23394;SDS011;11870;53.084;18.206;2023-04-06T09:34:22;7.60;;;4.65;;
23394;SDS011;11870;53.084;18.206;2023-04-06T09:36:49;7.45;;;4.32;;
23394;SDS011;11870;53.084;18.206;2023-04-06T09:39:19;6.45;;;3.97;;
23394;SDS011;11870;53.084;18.206;2023-04-06T09:41:49;10.85;;;4.18;;
23394;SDS011;11870;53.084;18.206;2023-04-06T09:44:15;8.45;;;4.55;;
23394;SDS011;11870;53.084;18.206;2023-04-06T09:46:42;8.18;;;3.72;;
23394;SDS011;11870;53.084;18.206;2023-04-06T09:49:09;6.97;;;4.15;;
23394;SDS011;11870;53.084;18.206;2023-04-06T09:51:37;8.43;;;4.00;;
23394;SDS011;11870;53.084;18.206;2023-04-06T09:54:10;8.35;;;4.00;;
23394;SDS011;11870;53.084;18.206;2023-04-06T09:56:39;8.15;;;4.40;;
23394;SDS011;11870;53.084;18.206;2023-04-06T09:59:16;9.40;;;5.20;;
23394;SDS011;11870;53.084;18.206;2023-04-06T10:01:45;5.72;;;4.10;;
23394;SDS011;11870;53.084;18.206;2023-04-06T10:06:44;9.07;;;4.40;;
23394;SDS011;11870;53.084;18.206;2023-04-06T10:09:17;7.63;;;4.55;;
23394;SDS011;11870;53.084;18.206;2023-04-06T10:11:44;8.40;;;4.18;;
23394;SDS011;11870;53.084;18.206;2023-04-06T10:14:11;6.57;;;4.28;;
23394;SDS011;11870;53.084;18.206;2023-04-06T10:16:38;7.75;;;5.45;;
23394;SDS011;11870;53.084;18.206;2023-04-06T10:19:06;9.65;;;5.82;;
23394;SDS011;11870;53.084;18.206;2023-04-06T10:21:39;5.03;;;3.53;;
23394;SDS011;11870;53.084;18.206;2023-04-06T10:24:07;6.95;;;3.85;;
23394;SDS011;11870;53.084;18.206;2023-04-06T10:26:36;8.30;;;3.90;;
23394;SDS011;11870;53.084;18.206;2023-04-06T10:29:02;4.90;;;3.33;;
23394;SDS011;11870;53.084;18.206;2023-04-06T10:31:29;12.82;;;5.47;;
23394;SDS011;11870;53.084;18.206;2023-04-06T10:33:59;10.20;;;4.65;;
23394;SDS011;11870;53.084;18.206;2023-04-06T10:36:35;6.78;;;3.78;;
23394;SDS011;11870;53.084;18.206;2023-04-06T10:39:02;7.32;;;4.10;;
23394;SDS011;11870;53.084;18.206;2023-04-06T10:41:36;8.75;;;4.28;;
23394;SDS011;11870;53.084;18.206;2023-04-06T10:44:22;5.65;;;3.70;;
23394;SDS011;11870;53.084;18.206;2023-04-06T10:46:56;7.43;;;4.15;;
23394;SDS011;11870;53.084;18.206;2023-04-06T10:49:23;6.30;;;3.97;;
23394;SDS011;11870;53.084;18.206;2023-04-06T10:51:53;9.18;;;3.85;;
23394;SDS011;11870;53.084;18.206;2023-04-06T10:54:23;6.20;;;3.70;;
23394;SDS011;11870;53.084;18.206;2023-04-06T10:56:51;10.10;;;4.47;;
23394;SDS011;11870;53.084;18.206;2023-04-06T10:59:20;10.07;;;4.90;;
23394;SDS011;11870;53.084;18.206;2023-04-06T11:01:47;6.10;;;3.72;;
23394;SDS011;11870;53.084;18.206;2023-04-06T11:04:17;5.13;;;3.13;;
23394;SDS011;11870;53.084;18.206;2023-04-06T11:06:47;5.65;;;3.05;;
23394;SDS011;11870;53.084;18.206;2023-04-06T11:09:27;7.15;;;4.28;;
23394;SDS011;11870;53.084;18.206;2023-04-06T11:11:55;6.07;;;3.30;;
23394;SDS011;11870;53.084;18.206;2023-04-06T11:14:21;5.57;;;3.55;;
23394;SDS011;11870;53.084;18.206;2023-04-06T11:16:48;7.90;;;4.00;;
23394;SDS011;11870;53.084;18.206;2023-04-06T11:19:15;5.50;;;3.17;;
23394;SDS011;11870;53.084;18.206;2023-04-06T11:21:48;6.20;;;3.65;;
23394;SDS011;11870;53.084;18.206;2023-04-06T11:24:18;5.82;;;3.22;;
23394;SDS011;11870;53.084;18.206;2023-04-06T11:26:50;5.72;;;3.40;;
23394;SDS011;11870;53.084;18.206;2023-04-06T11:29:21;6.10;;;3.60;;
23394;SDS011;11870;53.084;18.206;2023-04-06T11:31:49;6.38;;;3.38;;
23394;SDS011;11870;53.084;18.206;2023-04-06T11:34:19;4.90;;;3.67;;
23394;SDS011;11870;53.084;18.206;2023-04-06T11:36:46;5.97;;;3.10;;
23394;SDS011;11870;53.084;18.206;2023-04-06T11:39:13;5.72;;;3.15;;
23394;SDS011;11870;53.084;18.206;2023-04-06T11:41:47;4.20;;;2.95;;
23394;SDS011;11870;53.084;18.206;2023-04-06T11:44:14;7.47;;;3.70;;
23394;SDS011;11870;53.084;18.206;2023-04-06T11:46:41;5.97;;;3.28;;
23394;SDS011;11870;53.084;18.206;2023-04-06T11:49:17;4.90;;;3.33;;
23394;SDS011;11870;53.084;18.206;2023-04-06T11:51:45;5.57;;;3.30;;
23394;SDS011;11870;53.084;18.206;2023-04-06T11:54:12;8.55;;;3.13;;
23394;SDS011;11870;53.084;18.206;2023-04-06T11:56:38;6.78;;;3.28;;
23394;SDS011;11870;53.084;18.206;2023-04-06T11:59:04;6.63;;;3.80;;
23394;SDS011;11870;53.084;18.206;2023-04-06T12:01:31;5.15;;;3.47;;
23394;SDS011;11870;53.084;18.206;2023-04-06T12:03:57;6.40;;;3.63;;
23394;SDS011;11870;53.084;18.206;2023-04-06T12:06:24;7.03;;;3.78;;
23394;SDS011;11870;53.084;18.206;2023-04-06T12:08:51;7.18;;;3.60;;
23394;SDS011;11870;53.084;18.206;2023-04-06T12:11:17;6.72;;;4.10;;
23394;SDS011;11870;53.084;18.206;2023-04-06T12:13:45;6.22;;;3.88;;
23394;SDS011;11870;53.084;18.206;2023-04-06T12:16:11;6.40;;;3.95;;
23394;SDS011;11870;53.084;18.206;2023-04-06T12:18:38;7.03;;;3.63;;
23394;SDS011;11870;53.084;18.206;2023-04-06T12:21:05;6.75;;;3.70;;
23394;SDS011;11870;53.084;18.206;2023-04-06T12:23:31;7.68;;;3.83;;
23394;SDS011;11870;53.084;18.206;2023-04-06T12:25:58;6.43;;;3.55;;
23394;SDS011;11870;53.084;18.206;2023-04-06T12:28:24;7.13;;;3.78;;
23394;SDS011;11870;53.084;18.206;2023-04-06T12:30:52;7.00;;;3.80;;
23394;SDS011;11870;53.084;18.206;2023-04-06T12:33:19;7.40;;;3.95;;
23394;SDS011;11870;53.084;18.206;2023-04-06T12:35:46;7.35;;;3.55;;
23394;SDS011;11870;53.084;18.206;2023-04-06T12:38:12;8.75;;;3.45;;
23394;SDS011;11870;53.084;18.206;2023-04-06T12:40:39;7.22;;;3.63;;
23394;SDS011;11870;53.084;18.206;2023-04-06T12:43:05;6.78;;;3.50;;
23394;SDS011;11870;53.084;18.206;2023-04-06T12:45:32;5.78;;;3.13;;
23394;SDS011;11870;53.084;18.206;2023-04-06T12:47:58;5.32;;;3.30;;
23394;SDS011;11870;53.084;18.206;2023-04-06T12:50:25;7.32;;;4.18;;
23394;SDS011;11870;53.084;18.206;2023-04-06T12:52:51;5.70;;;3.63;;
23394;SDS011;11870;53.084;18.206;2023-04-06T12:55:18;5.47;;;3.58;;
23394;SDS011;11870;53.084;18.206;2023-04-06T12:57:45;5.55;;;3.63;;
23394;SDS011;11870;53.084;18.206;2023-04-06T13:00:12;8.75;;;4.72;;
23394;SDS011;11870;53.084;18.206;2023-04-06T13:02:39;6.20;;;3.90;;
23394;SDS011;11870;53.084;18.206;2023-04-06T13:05:12;7.15;;;3.40;;
23394;SDS011;11870;53.084;18.206;2023-04-06T13:07:40;5.93;;;3.55;;
23394;SDS011;11870;53.084;18.206;2023-04-06T13:10:06;6.90;;;4.10;;
23394;SDS011;11870;53.084;18.206;2023-04-06T13:12:33;8.35;;;4.90;;
23394;SDS011;11870;53.084;18.206;2023-04-06T13:14:59;8.45;;;4.90;;
23394;SDS011;11870;53.084;18.206;2023-04-06T13:17:26;10.75;;;5.57;;
23394;SDS011;11870;53.084;18.206;2023-04-06T13:19:53;5.85;;;3.85;;
23394;SDS011;11870;53.084;18.206;2023-04-06T13:22:19;8.15;;;4.13;;
23394;SDS011;11870;53.084;18.206;2023-04-06T13:24:46;8.35;;;3.90;;
23394;SDS011;11870;53.084;18.206;2023-04-06T13:27:12;7.40;;;4.00;;
23394;SDS011;11870;53.084;18.206;2023-04-06T13:29:38;7.28;;;3.92;;
23394;SDS011;11870;53.084;18.206;2023-04-06T13:32:05;6.47;;;3.63;;
23394;SDS011;11870;53.084;18.206;2023-04-06T13:34:31;6.95;;;3.78;;
23394;SDS011;11870;53.084;18.206;2023-04-06T13:36:58;7.05;;;3.58;;
23394;SDS011;11870;53.084;18.206;2023-04-06T13:39:24;6.10;;;3.95;;
23394;SDS011;11870;53.084;18.206;2023-04-06T13:41:53;5.88;;;3.80;;
23394;SDS011;11870;53.084;18.206;2023-04-06T13:44:19;7.30;;;4.30;;
23394;SDS011;11870;53.084;18.206;2023-04-06T13:46:45;8.75;;;4.72;;
23394;SDS011;11870;53.084;18.206;2023-04-06T13:49:12;10.15;;;4.18;;
23394;SDS011;11870;53.084;18.206;2023-04-06T13:51:38;7.80;;;4.07;;
23394;SDS011;11870;53.084;18.206;2023-04-06T13:54:04;8.00;;;3.97;;
23394;SDS011;11870;53.084;18.206;2023-04-06T13:56:31;7.05;;;4.50;;
23394;SDS011;11870;53.084;18.206;2023-04-06T13:58:57;10.15;;;4.25;;
23394;SDS011;11870;53.084;18.206;2023-04-06T14:01:23;10.55;;;4.57;;
23394;SDS011;11870;53.084;18.206;2023-04-06T14:03:52;7.75;;;4.50;;
23394;SDS011;11870;53.084;18.206;2023-04-06T14:06:18;9.40;;;4.45;;
23394;SDS011;11870;53.084;18.206;2023-04-06T14:08:44;9.43;;;4.72;;
23394;SDS011;11870;53.084;18.206;2023-04-06T14:11:12;8.88;;;4.97;;
23394;SDS011;11870;53.084;18.206;2023-04-06T14:13:41;10.57;;;5.00;;
23394;SDS011;11870;53.084;18.206;2023-04-06T14:16:07;9.55;;;4.43;;
23394;SDS011;11870;53.084;18.206;2023-04-06T14:18:35;9.15;;;4.57;;
23394;SDS011;11870;53.084;18.206;2023-04-06T14:21:01;7.43;;;4.15;;